Time;durP1;ratioP1;P1;durP2;ratioP2;P2;SDS_P1;SDS_P2;PMS_P1;PMS_P2;Temp;Humidity;BMP_temperature;BMP_pressure;BME280_temperature;BME280_humidity;BME280_pressure;Samples;Min_cycle;Max_cycle;Signal;HPM_P1;HPM_P2
2022/10/15 00:01:14;;;;;;;84.90;50.97;;;12.60;99.90;;;;;;5056633;28;20407;-77
2022/10/15 00:03:42;;;;;;;85.25;51.47;;;;;;;;;;5056641;28;20820;-77
2022/10/15 00:06:09;;;;;;;82.80;51.13;;;;;;;;;;5056500;28;20422;-77
2022/10/15 00:08:35;;;;;;;92.70;53.15;;;;;;;;;;5056579;28;20481;-77
2022/10/15 00:11:04;;;;;;;86.90;51.58;;;;;;;;;;5056267;28;20968;-77
2022/10/15 00:13:31;;;;;;;87.03;52.28;;;;;;;;;;5056245;28;20891;-74
2022/10/15 00:15:57;;;;;;;94.20;52.55;;;12.70;99.90;;;;;;5056467;28;20399;-77
2022/10/15 00:18:23;;;;;;;85.63;51.22;;;12.90;99.90;;;;;;5056182;28;20902;-77
2022/10/15 00:20:49;;;;;;;83.85;50.83;;;;;;;;;;5089676;28;20482;-77
2022/10/15 00:23:15;;;;;;;84.93;52.28;;;;;;;;;;5056271;28;20402;-77
2022/10/15 00:25:41;;;;;;;85.80;52.90;;;12.70;99.90;;;;;;5073824;28;20459;-78
2022/10/15 00:28:07;;;;;;;87.88;51.63;;;;;;;;;;5072579;28;20440;-77
2022/10/15 00:30:33;;;;;;;88.47;51.70;;;;;;;;;;5055943;28;20407;-77
2022/10/15 00:32:59;;;;;;;87.30;52.60;;;12.70;99.90;;;;;;5055761;28;20404;-77
2022/10/15 00:35:25;;;;;;;80.88;50.92;;;;;;;;;;5039289;28;20487;-77
2022/10/15 00:37:51;;;;;;;82.45;50.60;;;;;;;;;;5055708;28;20478;-78
2022/10/15 00:40:18;;;;;;;83.97;50.95;;;;;;;;;;5055759;28;20532;-77
2022/10/15 00:42:44;;;;;;;81.60;49.55;;;;;;;;;;5055756;28;20407;-78
2022/10/15 00:45:13;;;;;;;84.32;49.90;;;12.90;99.90;;;;;;5055988;28;20423;-72
2022/10/15 00:47:45;;;;;;;77.60;48.25;;;;;;;;;;5055576;28;20415;-74
2022/10/15 00:50:13;;;;;;;82.57;49.03;;;;;;;;;;5055974;28;20404;-73
2022/10/15 00:52:48;;;;;;;80.05;47.15;;;;;;;;;;5055644;28;20840;-73
2022/10/15 00:55:19;;;;;;;77.75;47.63;;;12.70;99.90;;;;;;5056035;28;20435;-73
2022/10/15 00:57:48;;;;;;;73.30;46.70;;;12.70;99.90;;;;;;5055865;28;20760;-73
2022/10/15 01:00:14;;;;;;;82.70;47.35;;;12.80;99.90;;;;;;5055553;28;20912;-76
2022/10/15 01:02:41;;;;;;;74.53;46.72;;;12.70;99.90;;;;;;5038888;28;20427;-77
2022/10/15 01:05:08;;;;;;;79.40;47.38;;;;;;;;;;5038775;28;20479;-78
2022/10/15 01:07:34;;;;;;;80.00;48.30;;;;;;;;;;5055622;28;20435;-77
2022/10/15 01:10:00;;;;;;;79.72;47.80;;;;;;;;;;5055538;28;20418;-78
2022/10/15 01:12:33;;;;;;;87.15;48.83;;;;;;;;;;5073324;28;20392;-78
2022/10/15 01:15:40;;;;;;;77.57;46.23;;;12.70;99.90;;;;;;5055335;28;20400;-78
2022/10/15 01:18:10;;;;;;;79.30;46.40;;;12.40;99.90;;;;;;4994760;28;20416;-78
2022/10/15 01:20:55;;;;;;;79.77;47.20;;;;;;;;;;5044388;28;20472;-77
2022/10/15 01:23:39;;;;;;;80.20;46.33;;;12.70;99.90;;;;;;5055380;28;20477;-77
2022/10/15 01:26:20;;;;;;;85.05;47.78;;;;;;;;;;5054863;28;20918;-77
2022/10/15 01:28:46;;;;;;;79.22;47.15;;;;;;;;;;5055119;28;20403;-77
2022/10/15 01:31:33;;;;;;;77.05;45.75;;;12.40;99.90;;;;;;5054953;28;20439;-77
2022/10/15 01:34:10;;;;;;;80.30;46.10;;;12.40;99.90;;;;;;5038280;28;20450;-77
2022/10/15 01:36:46;;;;;;;77.95;45.38;;;12.50;99.90;;;;;;5055121;28;20775;-78
2022/10/15 01:39:24;;;;;;;80.30;45.50;;;12.50;99.90;;;;;;5055204;28;20404;-78
2022/10/15 01:41:52;;;;;;;77.90;45.20;;;;;;;;;;5054974;28;20759;-74
2022/10/15 01:44:18;;;;;;;79.03;45.70;;;;;;;;;;5054949;28;20399;-74
2022/10/15 01:46:47;;;;;;;79.07;45.63;;;;;;;;;;5051126;28;21090;-74
2022/10/15 01:49:16;;;;;;;80.80;45.78;;;12.50;99.90;;;;;;5051399;28;20406;-74
2022/10/15 01:51:43;;;;;;;80.75;45.60;;;;;;;;;;5051254;28;20433;-74
2022/10/15 01:54:14;;;;;;;74.15;43.45;;;12.10;99.90;;;;;;5050688;28;20402;-74
2022/10/15 01:56:40;;;;;;;69.60;44.08;;;;;;;;;;5051373;28;20409;-74
2022/10/15 01:59:08;;;;;;;70.20;44.03;;;12.70;99.90;;;;;;5051289;28;20506;-74
2022/10/15 02:01:34;;;;;;;72.40;43.72;;;;;;;;;;5051350;28;20462;-74
2022/10/15 02:04:01;;;;;;;74.03;43.08;;;;;;;;;;5051350;28;20478;-74
2022/10/15 02:06:40;;;;;;;73.07;43.70;;;12.20;99.90;;;;;;5051018;28;21063;-74
2022/10/15 02:09:23;;;;;;;71.22;43.35;;;12.60;99.90;;;;;;5050925;28;20401;-77
2022/10/15 02:12:19;;;;;;;75.70;43.20;;;12.70;99.90;;;;;;5051053;28;20397;-77
2022/10/15 02:14:58;;;;;;;68.10;41.90;;;12.60;99.90;;;;;;5052149;28;20394;-77
2022/10/15 02:17:35;;;;;;;66.72;42.08;;;12.70;99.90;;;;;;5052065;28;20904;-77
2022/10/15 02:20:09;;;;;;;73.38;43.03;;;;;;;;;;5050678;28;20408;-77
2022/10/15 02:22:59;;;;;;;72.10;43.42;;;12.50;99.90;;;;;;5050672;28;20459;-77
2022/10/15 02:25:27;;;;;;;74.13;43.10;;;12.80;99.90;;;;;;5049684;28;20429;-77
2022/10/15 02:27:54;;;;;;;69.05;43.00;;;;;;;;;;5050829;28;20409;-77
2022/10/15 02:30:20;;;;;;;69.28;42.20;;;;;;;;;;5050502;28;20905;-76
2022/10/15 02:32:50;;;;;;;68.53;42.13;;;;;;;;;;5050490;28;20409;-76
2022/10/15 02:35:16;;;;;;;65.88;42.35;;;;;;;;;;5050548;28;20917;-73
2022/10/15 02:37:46;;;;;;;73.43;43.60;;;12.50;99.90;;;;;;5050652;28;20440;-73
2022/10/15 02:40:12;;;;;;;68.50;43.53;;;;;;;;;;5050488;28;20424;-73
2022/10/15 02:42:38;;;;;;;72.55;43.55;;;;;;;;;;5050549;28;20746;-73
2022/10/15 02:45:05;;;;;;;70.97;42.83;;;;;;;;;;5050480;28;20405;-73
2022/10/15 02:47:31;;;;;;;72.53;42.92;;;;;;;;;;5047791;28;20420;-76
2022/10/15 02:49:57;;;;;;;73.07;43.85;;;;;;;;;;5050494;28;20406;-77
2022/10/15 02:52:23;;;;;;;71.07;43.38;;;;;;;;;;5050423;28;20444;-77
2022/10/15 02:54:49;;;;;;;72.40;44.35;;;12.50;99.90;;;;;;5050542;28;20401;-77
2022/10/15 02:57:15;;;;;;;68.63;43.08;;;12.30;99.90;;;;;;5050245;28;20576;-77
2022/10/15 02:59:41;;;;;;;69.40;42.83;;;;;;;;;;5050184;28;20495;-77
2022/10/15 03:02:07;;;;;;;67.32;41.63;;;;;;;;;;5050351;28;20398;-77
2022/10/15 03:04:33;;;;;;;66.27;42.17;;;12.50;99.90;;;;;;5049997;28;20885;-77
2022/10/15 03:06:59;;;;;;;64.30;40.87;;;;;;;;;;5032409;28;20433;-77
2022/10/15 03:09:25;;;;;;;62.10;39.95;;;;;;;;;;5049974;28;20413;-77
2022/10/15 03:11:51;;;;;;;67.18;41.80;;;;;;;;;;5050048;28;20401;-77
2022/10/15 03:14:17;;;;;;;67.70;41.50;;;12.10;99.90;;;;;;5050024;28;20463;-77
2022/10/15 03:16:43;;;;;;;63.70;40.00;;;;;;;;;;5050137;28;20409;-77
2022/10/15 03:19:09;;;;;;;69.25;42.50;;;;;;;;;;5050164;28;20401;-77
2022/10/15 03:21:35;;;;;;;67.53;41.33;;;;;;;;;;5050012;28;20417;-77
2022/10/15 03:24:00;;;;;;;70.78;42.72;;;12.50;99.90;;;;;;5050299;28;20766;-77
2022/10/15 03:26:27;;;;;;;77.87;44.40;;;;;;;;;;5049688;28;20433;-78
2022/10/15 03:28:53;;;;;;;80.18;44.72;;;;;;;;;;5049946;28;20401;-78
2022/10/15 03:31:19;;;;;;;79.78;44.65;;;;;;;;;;5050050;28;20754;-78
2022/10/15 03:33:45;;;;;;;89.30;48.50;;;;;;;;;;5050306;28;20538;-78
2022/10/15 03:36:11;;;;;;;99.55;49.50;;;;;;;;;;5050216;28;20401;-77
2022/10/15 03:38:37;;;;;;;92.80;48.03;;;12.50;99.90;;;;;;5049942;28;20405;-77
2022/10/15 03:41:03;;;;;;;92.60;48.58;;;12.30;99.90;;;;;;5049875;28;20413;-78
2022/10/15 03:43:29;;;;;;;92.00;47.72;;;;;;;;;;5050082;28;20496;-78
2022/10/15 03:45:55;;;;;;;93.47;47.72;;;;;;;;;;5051445;28;20471;-78
2022/10/15 03:48:22;;;;;;;95.93;47.40;;;;;;;;;;5053318;28;20450;-78
2022/10/15 03:50:48;;;;;;;90.07;47.13;;;;;;;;;;5053146;28;20396;-77
2022/10/15 03:53:14;;;;;;;93.97;48.22;;;;;;;;;;5070756;28;20491;-78
2022/10/15 03:55:40;;;;;;;90.90;47.92;;;;;;;;;;5071213;28;20875;-78
2022/10/15 03:58:06;;;;;;;92.35;47.10;;;12.30;99.90;;;;;;5053363;28;20421;-74
2022/10/15 04:00:32;;;;;;;92.57;47.58;;;;;;;;;;5053094;28;20966;-74
2022/10/15 04:02:58;;;;;;;90.95;47.00;;;;;;;;;;5052878;28;20411;-74
2022/10/15 04:05:23;;;;;;;93.60;47.47;;;12.10;99.90;;;;;;5052704;28;20923;-74
2022/10/15 04:07:49;;;;;;;94.27;46.87;;;;;;;;;;5069681;28;20408;-74
2022/10/15 04:10:16;;;;;;;92.72;46.70;;;;;;;;;;5070687;28;20427;-73
2022/10/15 04:12:41;;;;;;;93.93;46.75;;;12.20;99.90;;;;;;5070670;28;20400;-73
2022/10/15 04:15:08;;;;;;;85.93;45.22;;;;;;;;;;5052639;28;20404;-73
2022/10/15 04:17:34;;;;;;;80.82;44.33;;;;;;;;;;5053969;28;20469;-73
2022/10/15 04:20:00;;;;;;;83.50;44.87;;;;;;;;;;5056330;28;20480;-73
2022/10/15 04:22:26;;;;;;;79.88;44.38;;;;;;;;;;5056433;28;20395;-73
2022/10/15 04:24:51;;;;;;;81.35;44.17;;;12.40;99.90;;;;;;5056514;28;20431;-74
2022/10/15 04:27:17;;;;;;;83.45;45.97;;;;;;;;;;5056103;28;20451;-73
2022/10/15 04:29:43;;;;;;;86.72;45.13;;;11.90;99.90;;;;;;5056281;28;20483;-73
2022/10/15 04:32:13;;;;;;;79.72;43.38;;;;;;;;;;5056274;28;20495;-73
2022/10/15 04:34:39;;;;;;;82.88;44.72;;;12.40;99.90;;;;;;5072801;28;20421;-73
2022/10/15 04:37:05;;;;;;;83.63;43.63;;;;;;;;;;5056222;28;20939;-73
2022/10/15 04:39:30;;;;;;;80.38;43.97;;;12.20;99.90;;;;;;5055829;28;20420;-73
2022/10/15 04:41:56;;;;;;;81.95;44.38;;;12.20;99.90;;;;;;5056023;28;20764;-73
2022/10/15 04:44:22;;;;;;;83.70;45.45;;;;;;;;;;5055940;28;20399;-74
2022/10/15 04:46:48;;;;;;;87.85;45.47;;;;;;;;;;5052199;28;20440;-74
2022/10/15 04:49:14;;;;;;;91.93;46.33;;;12.40;99.90;;;;;;5052593;28;20405;-73
2022/10/15 04:51:40;;;;;;;86.47;46.87;;;;;;;;;;5052576;28;20408;-74
2022/10/15 04:54:06;;;;;;;89.45;47.40;;;;;;;;;;5052452;28;20393;-73
2022/10/15 04:56:32;;;;;;;89.03;46.38;;;;;;;;;;5052478;28;20462;-74
2022/10/15 04:58:58;;;;;;;85.60;47.95;;;;;;;;;;5052414;28;20493;-73
2022/10/15 05:01:24;;;;;;;93.65;47.95;;;12.10;99.90;;;;;;5052287;28;20488;-74
2022/10/15 05:03:50;;;;;;;100.45;50.63;;;;;;;;;;5053682;28;20414;-74
2022/10/15 05:06:17;;;;;;;96.00;50.13;;;;;;;;;;5052138;28;20429;-74
2022/10/15 05:08:43;;;;;;;97.65;51.25;;;;;;;;;;5052420;28;20416;-74
2022/10/15 05:11:15;;;;;;;99.10;50.83;;;12.30;99.90;;;;;;5052279;28;20409;-74
2022/10/15 05:13:41;;;;;;;107.20;53.88;;;;;;;;;;5035393;28;20492;-74
2022/10/15 05:16:13;;;;;;;101.85;52.42;;;12.20;99.90;;;;;;5051802;28;20414;-74
2022/10/15 05:18:39;;;;;;;110.78;53.13;;;;;;;;;;5052233;28;20406;-78
2022/10/15 05:21:06;;;;;;;119.07;56.15;;;;;;;;;;5051904;28;20416;-78
2022/10/15 05:23:32;;;;;;;117.20;55.95;;;;;;;;;;5051915;28;20488;-78
2022/10/15 05:25:59;;;;;;;112.35;55.25;;;12.20;99.90;;;;;;5051750;28;20429;-74
2022/10/15 05:28:25;;;;;;;116.47;57.73;;;;;;;;;;5051319;28;20463;-73
2022/10/15 05:30:51;;;;;;;122.85;58.45;;;;;;;;;;5050897;28;20401;-73
2022/10/15 05:33:17;;;;;;;123.50;57.47;;;;;;;;;;5051537;28;20405;-73
2022/10/15 05:35:43;;;;;;;120.05;59.53;;;;;;;;;;5051723;28;20488;-73
2022/10/15 05:38:10;;;;;;;143.18;60.63;;;;;;;;;;5051745;28;20448;-77
2022/10/15 05:40:35;;;;;;;123.38;61.08;;;12.00;99.90;;;;;;5051748;28;20757;-77
2022/10/15 05:43:02;;;;;;;125.38;60.97;;;;;;;;;;5051480;28;20405;-77
2022/10/15 05:45:28;;;;;;;128.77;60.40;;;;;;;;;;5051052;28;20921;-77
2022/10/15 05:47:57;;;;;;;126.93;60.20;;;;;;;;;;5051071;28;20509;-77
2022/10/15 05:50:22;;;;;;;131.52;59.72;;;11.70;99.90;;;;;;5051245;28;20882;-77
2022/10/15 05:52:48;;;;;;;127.07;60.65;;;;;;;;;;5051158;28;20452;-78
2022/10/15 05:55:15;;;;;;;127.63;60.67;;;;;;;;;;5051377;28;20408;-79
2022/10/15 05:57:41;;;;;;;134.13;61.67;;;;;;;;;;5051152;28;20488;-78
2022/10/15 06:00:07;;;;;;;130.75;61.78;;;12.10;99.90;;;;;;5051214;28;20417;-77
2022/10/15 06:02:33;;;;;;;129.90;61.20;;;;;;;;;;5052374;28;20919;-77
2022/10/15 06:05:00;;;;;;;132.18;61.53;;;;;;;;;;5052290;28;20723;-78
2022/10/15 06:07:26;;;;;;;124.55;60.47;;;;;;;;;;5052268;28;20393;-77
2022/10/15 06:09:52;;;;;;;125.38;59.53;;;;;;;;;;5034845;28;20409;-77
2022/10/15 06:12:18;;;;;;;121.03;59.28;;;;;;;;;;5050742;28;20492;-77
2022/10/15 06:14:44;;;;;;;123.38;60.42;;;;;;;;;;5050833;28;20516;-77
2022/10/15 06:17:10;;;;;;;122.05;59.92;;;12.20;99.90;;;;;;5050822;28;20413;-77
2022/10/15 06:19:36;;;;;;;129.10;60.67;;;;;;;;;;5034235;28;20405;-77
2022/10/15 06:22:02;;;;;;;119.95;58.10;;;;;;;;;;5050574;28;20484;-78
2022/10/15 06:24:28;;;;;;;131.95;61.35;;;;;;;;;;5051034;28;20832;-78
2022/10/15 06:26:54;;;;;;;129.63;59.53;;;;;;;;;;5050382;28;20429;-78
2022/10/15 06:29:20;;;;;;;128.27;60.93;;;;;;;;;;5050524;28;20405;-78
2022/10/15 06:31:46;;;;;;;122.03;57.70;;;;;;;;;;5050951;28;20776;-78
2022/10/15 06:34:12;;;;;;;132.38;59.53;;;;;;;;;;5050764;28;20746;-78
2022/10/15 06:36:38;;;;;;;129.65;60.92;;;12.20;99.90;;;;;;5034227;28;20482;-78
2022/10/15 06:39:04;;;;;;;124.72;57.83;;;;;;;;;;5050743;28;20413;-78
2022/10/15 06:41:30;;;;;;;133.32;60.20;;;;;;;;;;5050206;28;20405;-78
2022/10/15 06:43:56;;;;;;;128.17;59.33;;;12.10;99.90;;;;;;5050524;28;21010;-78
2022/10/15 06:46:22;;;;;;;129.13;60.57;;;;;;;;;;5050229;28;20434;-78
2022/10/15 06:48:48;;;;;;;137.35;62.20;;;12.20;99.90;;;;;;5050532;28;20398;-79
2022/10/15 06:51:14;;;;;;;143.50;62.77;;;12.30;99.90;;;;;;5050676;28;20501;-80
2022/10/15 06:53:42;;;;;;;151.57;64.80;;;;;;;;;;5052225;28;20916;-80
2022/10/15 06:56:08;;;;;;;140.57;63.92;;;12.20;99.90;;;;;;5050723;28;20409;-80
2022/10/15 06:58:34;;;;;;;160.83;67.47;;;;;;;;;;5050729;28;20759;-79
2022/10/15 07:01:03;;;;;;;138.80;63.10;;;;;;;;;;5050658;28;20405;-79
2022/10/15 07:03:29;;;;;;;146.07;64.43;;;;;;;;;;5050559;28;20409;-80
2022/10/15 07:05:56;;;;;;;142.25;63.78;;;;;;;;;;5050478;28;20429;-79
2022/10/15 07:08:22;;;;;;;139.13;62.80;;;;;;;;;;5050482;28;20393;-79
2022/10/15 07:10:47;;;;;;;144.27;62.80;;;12.50;99.90;;;;;;5050564;28;20474;-79
2022/10/15 07:13:15;;;;;;;144.00;64.30;;;;;;;;;;5050118;28;20738;-79
2022/10/15 07:15:40;;;;;;;134.93;63.30;;;12.40;99.90;;;;;;5050156;28;20440;-79
2022/10/15 07:18:06;;;;;;;144.20;63.10;;;;;;;;;;5050113;28;20436;-78
2022/10/15 07:20:32;;;;;;;146.15;64.57;;;12.50;99.90;;;;;;5050470;28;20488;-79
2022/10/15 07:22:59;;;;;;;133.82;62.58;;;;;;;;;;5050259;28;20497;-79
2022/10/15 07:25:25;;;;;;;142.23;62.30;;;;;;;;;;5049864;28;20424;-79
2022/10/15 07:27:52;;;;;;;142.93;63.50;;;;;;;;;;5050215;28;20499;-78
2022/10/15 07:30:18;;;;;;;137.93;63.33;;;;;;;;;;5049978;28;20398;-79
2022/10/15 07:32:44;;;;;;;135.45;60.22;;;;;;;;;;5049984;28;20405;-79
2022/10/15 07:35:09;;;;;;;132.73;60.92;;;12.50;99.90;;;;;;5050193;28;20731;-79
2022/10/15 07:37:35;;;;;;;137.43;62.17;;;;;;;;;;5049940;28;20413;-79
2022/10/15 07:40:01;;;;;;;136.55;62.65;;;12.50;99.90;;;;;;5049416;28;20433;-79
2022/10/15 07:42:27;;;;;;;154.57;65.10;;;12.50;99.90;;;;;;5049668;28;20436;-74
2022/10/15 07:44:53;;;;;;;126.50;60.83;;;;;;;;;;5049706;28;20401;-73
2022/10/15 07:47:19;;;;;;;133.10;61.80;;;;;;;;;;5049295;28;20425;-73
2022/10/15 07:49:45;;;;;;;127.90;59.88;;;13.00;99.90;;;;;;5049884;28;20543;-79
2022/10/15 07:52:11;;;;;;;131.37;60.73;;;;;;;;;;5050493;28;20405;-79
2022/10/15 07:54:37;;;;;;;126.78;59.05;;;;;;;;;;5054718;28;20432;-79
2022/10/15 07:57:05;;;;;;;120.65;58.60;;;;;;;;;;5053561;28;20467;-79
2022/10/15 07:59:32;;;;;;;121.07;58.15;;;12.70;99.90;;;;;;5053696;28;20405;-74
2022/10/15 08:01:58;;;;;;;117.13;57.03;;;;;;;;;;5053358;28;20413;-74
2022/10/15 08:04:24;;;;;;;121.65;58.65;;;;;;;;;;5053364;28;20406;-74
2022/10/15 08:06:49;;;;;;;119.23;56.93;;;13.20;99.90;;;;;;5053261;28;20909;-79
2022/10/15 08:09:16;;;;;;;125.23;58.10;;;;;;;;;;5053277;28;20409;-79
2022/10/15 08:11:41;;;;;;;112.25;55.42;;;13.30;99.90;;;;;;5053275;28;20455;-79
2022/10/15 08:14:07;;;;;;;118.22;54.97;;;;;;;;;;5053236;28;20403;-79
2022/10/15 08:16:33;;;;;;;109.18;52.08;;;;;;;;;;5053393;28;20408;-79
2022/10/15 08:19:00;;;;;;;117.15;55.40;;;;;;;;;;5053152;28;20405;-79
2022/10/15 08:21:26;;;;;;;112.25;54.55;;;;;;;;;;5052847;28;20969;-79
2022/10/15 08:23:52;;;;;;;112.70;54.15;;;;;;;;;;5053311;28;20459;-79
2022/10/15 08:26:18;;;;;;;108.65;55.00;;;;;;;;;;5053001;28;20921;-79
2022/10/15 08:28:44;;;;;;;106.45;52.80;;;;;;;;;;5052870;28;20409;-79
2022/10/15 08:31:10;;;;;;;110.15;53.25;;;13.00;99.90;;;;;;5054342;28;20405;-78
2022/10/15 08:33:37;;;;;;;119.30;56.05;;;;;;;;;;5053210;28;20405;-79
2022/10/15 08:36:07;;;;;;;121.45;56.30;;;13.30;99.90;;;;;;5052658;28;20989;-79
2022/10/15 08:38:33;;;;;;;115.40;55.80;;;;;;;;;;5036142;28;20411;-78
2022/10/15 08:41:01;;;;;;;111.83;54.40;;;13.30;99.90;;;;;;5052748;28;20780;-78
2022/10/15 08:43:35;;;;;;;107.15;53.85;;;;;;;;;;5035982;28;20405;-78
2022/10/15 08:46:05;;;;;;;109.47;55.45;;;13.10;99.90;;;;;;5054917;28;20421;-79
2022/10/15 08:48:37;;;;;;;110.15;54.58;;;;;;;;;;5055542;28;20778;-78
2022/10/15 08:51:08;;;;;;;98.72;51.75;;;13.30;99.90;;;;;;5055821;28;20407;-77
2022/10/15 08:53:48;;;;;;;101.07;53.03;;;;;;;;;;5072841;28;20422;-78
2022/10/15 08:56:22;;;;;;;99.63;50.53;;;13.30;99.90;;;;;;5055974;28;20807;-77
2022/10/15 08:58:49;;;;;;;98.55;51.40;;;;;;;;;;5073567;28;20461;-78
2022/10/15 09:01:28;;;;;;;98.25;49.67;;;13.00;99.90;;;;;;5055921;28;20420;-77
2022/10/15 09:04:06;;;;;;;85.47;44.22;;;13.00;99.90;;;;;;5037797;28;20388;-77
2022/10/15 09:06:36;;;;;;;94.07;47.03;;;;;;;;;;5055391;28;20448;-78
2022/10/15 09:09:33;;;;;;;85.90;45.17;;;13.40;99.90;;;;;;5055677;28;20414;-79
2022/10/15 09:12:05;;;;;;;68.05;37.47;;;;;;;;;;5055581;28;20405;-77
2022/10/15 09:14:34;;;;;;;71.10;39.63;;;13.40;99.90;;;;;;5055595;28;20741;-78
2022/10/15 09:17:14;;;;;;;76.45;41.50;;;13.20;99.90;;;;;;5055527;28;20490;-78
2022/10/15 09:19:43;;;;;;;74.05;41.95;;;13.10;99.90;;;;;;5055221;28;20407;-78
2022/10/15 09:22:11;;;;;;;66.47;38.60;;;;;;;;;;5055177;28;20903;-77
2022/10/15 09:24:37;;;;;;;62.50;37.43;;;13.10;99.90;;;;;;5055389;28;20488;-77
2022/10/15 09:27:07;;;;;;;63.83;35.83;;;;;;;;;;5055160;28;20970;-78
2022/10/15 09:29:36;;;;;;;62.45;34.92;;;13.10;99.90;;;;;;5055150;28;20410;-77
2022/10/15 09:32:11;;;;;;;63.65;36.15;;;;;;;;;;5055186;28;20435;-77
2022/10/15 09:34:53;;;;;;;60.30;34.90;;;13.10;99.90;;;;;;5054960;28;20847;-77
2022/10/15 09:37:42;;;;;;;58.83;33.72;;;;;;;;;;5038309;28;20407;-77
2022/10/15 09:40:08;;;;;;;62.53;34.73;;;;;;;;;;5060125;28;20507;-77
2022/10/15 09:42:38;;;;;;;55.78;32.35;;;12.90;99.90;;;;;;5072883;28;20513;-77
2022/10/15 09:45:08;;;;;;;61.22;35.15;;;;;;;;;;5054884;28;20807;-78
2022/10/15 09:47:35;;;;;;;63.47;33.83;;;13.10;99.90;;;;;;5054684;28;20404;-77
2022/10/15 09:50:02;;;;;;;64.35;35.58;;;13.30;99.90;;;;;;5088118;28;20411;-77
2022/10/15 09:53:04;;;;;;;67.13;35.63;;;13.20;99.90;;;;;;5054514;28;20396;-77
2022/10/15 09:55:41;;;;;;;64.27;35.37;;;;;;;;;;5054906;28;20406;-76
2022/10/15 09:58:12;;;;;;;68.73;36.43;;;;;;;;;;5054684;28;20403;-77
2022/10/15 10:00:57;;;;;;;62.45;34.53;;;13.40;99.90;;;;;;5054828;28;20404;-77
2022/10/15 10:03:25;;;;;;;66.55;36.35;;;13.40;99.90;;;;;;5088552;28;20482;-78
2022/10/15 10:06:05;;;;;;;63.33;34.58;;;13.30;99.90;;;;;;5037883;28;20429;-77
2022/10/15 10:08:34;;;;;;;62.05;34.67;;;;;;;;;;5039080;28;20400;-76
2022/10/15 10:11:02;;;;;;;60.13;34.27;;;13.60;99.90;;;;;;5055660;28;20832;-76
2022/10/15 10:13:31;;;;;;;52.07;32.10;;;;;;;;;;5055366;28;20403;-77
2022/10/15 10:16:01;;;;;;;57.83;30.40;;;;;;;;;;5055013;28;20446;-77
2022/10/15 10:18:27;;;;;;;51.00;30.70;;;13.50;99.90;;;;;;5055334;28;20442;-77
2022/10/15 10:21:00;;;;;;;50.75;30.02;;;13.50;99.90;;;;;;5071656;28;20443;-77
2022/10/15 10:23:44;;;;;;;49.50;30.20;;;13.70;99.90;;;;;;5054863;28;20523;-77
2022/10/15 10:26:10;;;;;;;40.88;26.13;;;;;;;;;;5054406;28;20454;-77
2022/10/15 10:28:43;;;;;;;41.10;25.67;;;;;;;;;;5054614;28;20957;-77
2022/10/15 10:31:10;;;;;;;42.53;24.70;;;;;;;;;;5055200;28;20404;-77
2022/10/15 10:33:38;;;;;;;30.60;21.48;;;13.80;99.90;;;;;;5055759;28;20400;-77
2022/10/15 10:36:06;;;;;;;31.17;21.23;;;;;;;;;;5055687;28;20478;-76
2022/10/15 10:38:37;;;;;;;32.50;21.75;;;;;;;;;;5055144;28;20959;-76
2022/10/15 10:41:08;;;;;;;32.58;21.20;;;;;;;;;;5055689;28;20411;-78
2022/10/15 10:43:39;;;;;;;28.40;19.88;;;;;;;;;;5055551;28;20407;-77
2022/10/15 10:46:16;;;;;;;28.05;19.20;;;;;;;;;;5055013;28;20924;-78
2022/10/15 10:48:50;;;;;;;29.17;19.30;;;14.40;99.90;;;;;;5054612;28;20447;-76
2022/10/15 10:51:18;;;;;;;31.95;19.45;;;;;;;;;;5054610;28;20438;-78
2022/10/15 10:53:47;;;;;;;27.60;19.08;;;;;;;;;;5054579;28;20407;-77
2022/10/15 10:56:14;;;;;;;27.42;18.67;;;14.20;99.90;;;;;;5054596;28;20420;-78
2022/10/15 10:58:40;;;;;;;26.23;18.85;;;;;;;;;;5054189;28;20407;-76
2022/10/15 11:01:10;;;;;;;25.75;18.70;;;;;;;;;;5054123;28;20410;-76
2022/10/15 11:03:37;;;;;;;27.75;18.58;;;;;;;;;;5071218;28;20404;-75
2022/10/15 11:06:06;;;;;;;27.27;19.30;;;;;;;;;;5053698;28;20427;-77
2022/10/15 11:08:39;;;;;;;25.50;17.73;;;;;;;;;;5054030;28;20898;-76
2022/10/15 11:11:05;;;;;;;27.10;17.83;;;;;;;;;;5053849;28;20473;-76
2022/10/15 11:13:37;;;;;;;25.33;17.65;;;;;;;;;;5053940;28;20815;-76
2022/10/15 11:16:05;;;;;;;25.77;17.47;;;14.50;99.90;;;;;;5070284;28;20499;-74
2022/10/15 11:18:50;;;;;;;23.90;17.58;;;;;;;;;;5053860;28;20410;-76
2022/10/15 11:21:49;;;;;;;24.90;17.38;;;14.30;99.90;;;;;;5053616;28;20396;-75
2022/10/15 11:24:43;;;;;;;22.55;16.38;;;14.40;99.90;;;;;;5056678;28;20418;-75
2022/10/15 11:27:15;;;;;;;22.90;16.10;;;;;;;;;;5033820;28;20779;-75
2022/10/15 11:29:53;;;;;;;21.48;14.95;;;14.60;99.90;;;;;;5057964;28;20469;-76
2022/10/15 11:32:29;;;;;;;19.35;14.50;;;;;;;;;;5058786;28;20426;-75
2022/10/15 11:35:09;;;;;;;22.73;15.43;;;14.60;99.90;;;;;;5057855;28;20407;-76
2022/10/15 11:37:45;;;;;;;20.90;16.05;;;;;;;;;;5059415;28;20410;-77
2022/10/15 11:40:14;;;;;;;24.48;16.85;;;;;;;;;;5058204;28;20411;-76
2022/10/15 11:42:55;;;;;;;24.17;16.33;;;15.00;99.90;;;;;;5075885;28;20407;-76
2022/10/15 11:45:53;;;;;;;25.05;17.58;;;15.00;99.90;;;;;;5076072;28;20722;-76
2022/10/15 11:48:37;;;;;;;22.65;17.63;;;15.10;99.90;;;;;;5041859;28;20589;-77
2022/10/15 11:51:08;;;;;;;22.58;17.10;;;;;;;;;;5091726;28;20922;-76
2022/10/15 11:53:48;;;;;;;25.27;17.60;;;;;;;;;;5057637;28;20403;-76
2022/10/15 11:56:14;;;;;;;25.92;18.50;;;;;;;;;;5057263;28;20412;-77
2022/10/15 11:58:43;;;;;;;22.60;17.48;;;;;;;;;;5057221;28;20486;-77
2022/10/15 12:01:23;;;;;;;23.33;17.83;;;15.10;99.90;;;;;;5057162;28;20403;-77
2022/10/15 12:04:03;;;;;;;25.65;17.80;;;15.10;99.90;;;;;;5057369;28;20410;-76
2022/10/15 12:06:38;;;;;;;23.55;18.00;;;15.20;99.90;;;;;;5057529;28;20473;-76
2022/10/15 12:09:05;;;;;;;26.77;17.08;;;15.30;99.90;;;;;;5057422;28;20407;-77
2022/10/15 12:11:34;;;;;;;24.98;17.48;;;15.40;99.90;;;;;;5057490;28;20404;-77
2022/10/15 12:14:12;;;;;;;24.43;17.33;;;15.20;99.90;;;;;;5057815;28;20396;-77
2022/10/15 12:19:08;;;;;;;24.40;17.45;;;15.30;99.90;;;;;;5163171;27;20429;-77
2022/10/15 12:21:59;;;;;;;21.83;16.55;;;15.70;99.90;;;;;;5163858;27;20482;-77
2022/10/15 12:24:40;;;;;;;21.42;16.75;;;15.40;99.90;;;;;;5112042;28;20407;-77
2022/10/15 12:27:18;;;;;;;22.77;16.95;;;;;;;;;;5128849;27;20396;-78
2022/10/15 12:30:04;;;;;;;25.87;16.57;;;;;;;;;;5111942;28;20871;-77
2022/10/15 12:32:46;;;;;;;23.35;17.92;;;15.00;99.90;;;;;;5100813;28;20400;-79
2022/10/15 12:35:15;;;;;;;27.08;18.55;;;14.90;99.90;;;;;;5128822;27;20611;-78
2022/10/15 12:37:42;;;;;;;27.70;18.83;;;;;;;;;;5111712;28;20821;-79
2022/10/15 12:40:20;;;;;;;26.77;19.10;;;;;;;;;;5128465;27;20905;-78
2022/10/15 12:42:59;;;;;;;30.00;20.55;;;;;;;;;;5128620;28;20411;-80
2022/10/15 12:45:40;;;;;;;26.50;19.63;;;15.00;99.90;;;;;;5111685;28;20452;-80
2022/10/15 12:48:19;;;;;;;29.38;20.35;;;15.00;99.90;;;;;;5128663;28;20846;-80
2022/10/15 12:50:45;;;;;;;29.43;20.50;;;;;;;;;;5128678;27;20404;-80
2022/10/15 12:53:33;;;;;;;30.80;20.65;;;;;;;;;;5111821;28;20483;-80
2022/10/15 12:56:14;;;;;;;36.17;23.40;;;;;;;;;;5128748;28;20448;-80
2022/10/15 12:58:41;;;;;;;37.97;22.90;;;;;;;;;;5127861;27;20742;-75
2022/10/15 13:01:13;;;;;;;39.53;23.60;;;;;;;;;;5111085;28;20395;-75
2022/10/15 13:03:43;;;;;;;39.25;23.95;;;;;;;;;;5128588;27;20406;-75
2022/10/15 13:06:12;;;;;;;38.88;23.90;;;;;;;;;;5127644;28;20461;-75
2022/10/15 13:08:42;;;;;;;43.28;24.85;;;;;;;;;;5110722;28;20838;-75
2022/10/15 13:11:31;;;;;;;43.65;25.05;;;14.80;99.90;;;;;;5127343;27;20400;-75
2022/10/15 13:13:59;;;;;;;46.70;24.73;;;;;;;;;;5110305;28;20756;-75
2022/10/15 13:16:26;;;;;;;47.95;25.80;;;;;;;;;;5127036;28;20486;-76
2022/10/15 13:18:54;;;;;;;48.08;25.23;;;14.80;99.90;;;;;;5127483;28;20483;-75
2022/10/15 13:21:21;;;;;;;47.05;24.55;;;14.70;99.90;;;;;;5127158;27;20490;-74
2022/10/15 13:23:48;;;;;;;42.70;24.10;;;;;;;;;;5110077;27;20400;-74
2022/10/15 13:26:29;;;;;;;43.23;23.33;;;14.60;99.90;;;;;;5127054;28;20419;-75
2022/10/15 13:28:58;;;;;;;47.40;25.50;;;;;;;;;;5104220;28;20411;-75
2022/10/15 13:31:25;;;;;;;43.60;24.27;;;14.70;99.90;;;;;;5113464;28;20407;-74
2022/10/15 13:34:12;;;;;;;45.40;23.92;;;14.70;99.90;;;;;;5113320;28;20428;-75
2022/10/15 13:36:38;;;;;;;44.80;24.38;;;;;;;;;;5113178;28;20401;-75
2022/10/15 13:39:25;;;;;;;41.05;22.48;;;14.80;99.90;;;;;;5113402;28;20921;-75
2022/10/15 13:41:53;;;;;;;34.22;20.67;;;15.00;99.90;;;;;;5113255;28;20488;-74
2022/10/15 13:44:23;;;;;;;34.03;20.08;;;14.70;99.90;;;;;;5113175;28;20401;-74